CYTZ/YTZ METAR and TAF weather

Enter ICAO airport designator
Station Type Date Time Source
CYTZ METAR 2022/10/01 08:00 UTC NOAA

CYTZ 010800Z AUTO 00000KT 9SM CLR 10/05 A3017 RMK SLP220


Station Type Date Time Source
CYTZ Decoded METAR 2022/10/01 08:00 UTC NOAA

Toronto Island Airport Automated Reporting Station, Canada (CYTZ) 43-38N 079-24W
Oct 01, 2022 - 04:00 AM EDT / 2022.10.01 0800 UTC
Wind: Calm:0
Visibility: 9 mile(s):0
Sky conditions: clear
Temperature: 50 F (10 C)
Dew Point: 41 F (5 C)
Relative Humidity: 71%
Pressure (altimeter): 30.17 in. Hg (1021 hPa)
ob: CYTZ 010800Z AUTO 00000KT 9SM CLR 10/05 A3017 RMK SLP220
cycle: 8

Station Type Date Time Source
CYTZ TAF 2022/10/01 08:45 UTC NOAA

TAF CYTZ 010740Z 0108/0208 VRB03KT P6SM SKC
FM011300 02010KT P6SM SCT200
FM011600 04012KT P6SM BKN200
FM020300 04012KT P6SM BKN040
RMK FCST BASED ON AUTO OBS. NXT FCST BY 011400Z

Example: see airport list